Time;durP1;ratioP1;P1;durP2;ratioP2;P2;SDS_P1;SDS_P2;PMS_P1;PMS_P2;Temp;Humidity;BMP_temperature;BMP_pressure;BME280_temperature;BME280_humidity;BME280_pressure;Samples;Min_cycle;Max_cycle;Signal;HPM_P1;HPM_P2
2021/03/02 00:02:04;;;;;;;41.38;19.55;;;0.60;99.90;;;;;;5080408;28;20044;-84
2021/03/02 00:04:31;;;;;;;37.92;18.42;;;0.60;99.90;;;;;;5082319;28;20056;-84
2021/03/02 00:06:59;;;;;;;37.42;17.75;;;0.60;99.90;;;;;;5080755;28;20060;-84
2021/03/02 00:09:26;;;;;;;41.70;19.92;;;0.60;99.90;;;;;;5081001;28;20060;-85
2021/03/02 00:11:53;;;;;;;38.40;18.52;;;0.60;99.90;;;;;;5080773;28;20101;-84
2021/03/02 00:14:20;;;;;;;41.42;18.75;;;0.60;99.90;;;;;;5080590;28;20044;-84
2021/03/02 00:16:55;;;;;;;36.95;18.40;;;0.60;99.90;;;;;;5080522;28;20052;-84
2021/03/02 00:19:32;;;;;;;39.47;17.73;;;0.60;99.90;;;;;;5081014;28;20045;-84
2021/03/02 00:22:08;;;;;;;37.80;17.17;;;0.50;99.90;;;;;;5081101;28;20044;-84
2021/03/02 00:24:39;;;;;;;37.90;17.65;;;0.50;99.90;;;;;;5080574;28;20128;-85
2021/03/02 00:27:07;;;;;;;33.35;16.75;;;0.40;99.90;;;;;;5080299;28;20048;-85
2021/03/02 00:29:34;;;;;;;40.42;17.70;;;0.40;99.90;;;;;;5080493;28;20049;-84
2021/03/02 00:32:01;;;;;;;38.55;17.80;;;0.40;99.90;;;;;;5079905;28;20135;-84
2021/03/02 00:34:27;;;;;;;34.65;16.85;;;0.40;99.90;;;;;;5080197;28;20040;-85
2021/03/02 00:36:54;;;;;;;36.78;17.70;;;0.40;99.90;;;;;;5079911;28;20048;-84
2021/03/02 00:39:20;;;;;;;39.28;18.17;;;0.40;99.90;;;;;;5081349;28;20040;-84
2021/03/02 00:41:46;;;;;;;43.13;18.17;;;0.30;99.90;;;;;;5080257;28;20044;-84
2021/03/02 00:44:13;;;;;;;33.95;17.00;;;0.40;99.90;;;;;;5079856;28;20048;-84
2021/03/02 00:46:39;;;;;;;36.38;17.38;;;0.40;99.90;;;;;;5079576;28;20051;-85
2021/03/02 00:49:06;;;;;;;36.08;17.92;;;0.40;99.90;;;;;;5079659;28;20060;-84
2021/03/02 00:51:32;;;;;;;32.83;16.98;;;0.40;99.90;;;;;;5079675;28;20487;-85
2021/03/02 00:53:59;;;;;;;35.95;16.73;;;0.30;99.90;;;;;;5079622;28;20131;-85
2021/03/02 00:56:25;;;;;;;43.00;17.55;;;0.40;99.90;;;;;;5079576;28;20052;-84
2021/03/02 00:58:52;;;;;;;45.78;19.48;;;0.50;99.90;;;;;;5079461;28;20052;-84
2021/03/02 01:01:18;;;;;;;34.90;17.45;;;0.50;99.90;;;;;;5079334;28;20053;-85
2021/03/02 01:03:44;;;;;;;38.33;17.83;;;0.50;99.90;;;;;;5079782;28;20097;-84
2021/03/02 01:06:10;;;;;;;38.22;18.00;;;0.50;99.90;;;;;;5079435;28;20071;-84
2021/03/02 01:08:37;;;;;;;41.30;18.20;;;0.60;99.90;;;;;;5078973;28;20055;-83
2021/03/02 01:11:03;;;;;;;40.90;17.40;;;0.60;99.90;;;;;;5079687;28;20099;-84
2021/03/02 01:13:30;;;;;;;41.85;18.48;;;0.60;99.90;;;;;;5080722;28;20500;-84
2021/03/02 01:15:56;;;;;;;35.42;17.30;;;0.70;99.90;;;;;;5081303;28;20579;-84
2021/03/02 01:18:23;;;;;;;38.38;18.25;;;0.70;99.90;;;;;;5078883;28;20067;-84
2021/03/02 01:20:49;;;;;;;38.22;18.05;;;0.70;99.90;;;;;;5080783;28;20047;-85
2021/03/02 01:23:15;;;;;;;36.63;18.10;;;0.70;99.90;;;;;;5080574;28;20480;-84
2021/03/02 01:25:42;;;;;;;34.15;16.73;;;0.70;99.90;;;;;;5079324;28;20048;-85
2021/03/02 01:28:08;;;;;;;34.13;17.67;;;0.70;99.90;;;;;;5078408;28;20048;-85
2021/03/02 01:30:35;;;;;;;35.50;16.77;;;0.70;99.90;;;;;;5080564;28;20049;-84
2021/03/02 01:33:01;;;;;;;33.60;17.63;;;0.80;99.90;;;;;;5079981;28;20080;-84
2021/03/02 01:35:28;;;;;;;36.72;16.38;;;0.70;99.90;;;;;;5078880;28;20127;-84
2021/03/02 01:37:54;;;;;;;33.33;16.05;;;0.70;99.90;;;;;;5062967;28;20075;-84
2021/03/02 01:40:22;;;;;;;35.22;17.17;;;0.60;99.90;;;;;;5079030;28;20052;-84
2021/03/02 01:42:48;;;;;;;46.78;19.50;;;0.60;99.90;;;;;;5079405;28;20456;-84
2021/03/02 01:45:17;;;;;;;36.03;17.95;;;0.60;99.90;;;;;;5080630;28;20394;-85
2021/03/02 01:47:46;;;;;;;44.15;18.67;;;0.60;99.90;;;;;;5080020;28;20116;-84
2021/03/02 01:50:13;;;;;;;40.10;17.60;;;0.50;99.90;;;;;;5080157;28;20045;-84
2021/03/02 01:52:39;;;;;;;42.80;18.65;;;0.50;99.90;;;;;;5079879;28;20066;-84
2021/03/02 01:55:07;;;;;;;42.25;18.08;;;0.50;99.90;;;;;;5081917;28;20050;-84
2021/03/02 01:57:33;;;;;;;42.92;18.42;;;0.50;99.90;;;;;;5080366;28;20052;-84
2021/03/02 02:00:03;;;;;;;42.85;18.90;;;0.40;99.90;;;;;;5080852;28;20456;-84
2021/03/02 02:02:40;;;;;;;42.67;18.08;;;0.40;99.90;;;;;;5080208;28;20041;-85
2021/03/02 02:05:08;;;;;;;34.65;15.75;;;0.40;99.90;;;;;;5080079;28;20052;-84
2021/03/02 02:07:40;;;;;;;35.90;16.10;;;0.30;99.90;;;;;;5081815;28;20464;-84
2021/03/02 02:10:09;;;;;;;40.13;16.80;;;0.30;99.90;;;;;;5080993;28;20130;-84
2021/03/02 02:12:39;;;;;;;33.90;15.35;;;0.30;99.90;;;;;;5082090;28;20242;-84
2021/03/02 02:15:16;;;;;;;36.55;17.33;;;0.30;99.90;;;;;;5082041;28;20048;-84
2021/03/02 02:17:55;;;;;;;34.05;16.13;;;0.30;99.90;;;;;;5082829;28;20094;-84
2021/03/02 02:20:35;;;;;;;36.60;16.20;;;0.30;99.90;;;;;;5082900;28;20063;-84
2021/03/02 02:23:11;;;;;;;31.30;15.85;;;0.20;99.90;;;;;;5084463;28;20040;-85
2021/03/02 02:25:44;;;;;;;40.75;16.75;;;0.30;99.90;;;;;;5084338;28;20074;-84
2021/03/02 02:28:12;;;;;;;33.50;16.25;;;0.20;99.90;;;;;;5098587;28;20032;-82
2021/03/02 02:30:41;;;;;;;38.60;16.05;;;0.20;99.90;;;;;;5090815;28;20052;-84
2021/03/02 02:33:12;;;;;;;40.78;17.33;;;0.20;99.90;;;;;;5083274;28;20044;-84
2021/03/02 02:35:42;;;;;;;38.28;17.40;;;0.10;99.90;;;;;;5084548;28;20460;-84
2021/03/02 02:38:10;;;;;;;38.60;16.85;;;0.10;99.90;;;;;;5096675;28;20036;-82
2021/03/02 02:40:38;;;;;;;37.85;16.65;;;0.10;99.90;;;;;;5098974;28;20036;-82
2021/03/02 02:43:06;;;;;;;35.20;17.02;;;0.10;99.90;;;;;;5081562;28;20421;-83
2021/03/02 02:45:32;;;;;;;37.60;17.05;;;0.20;99.90;;;;;;5077171;28;20041;-84
2021/03/02 02:47:59;;;;;;;36.05;15.95;;;0.20;99.90;;;;;;5077907;28;20476;-84
2021/03/02 02:50:26;;;;;;;32.20;15.80;;;0.20;99.90;;;;;;5076687;28;20090;-84
2021/03/02 02:52:54;;;;;;;37.65;17.05;;;0.20;99.90;;;;;;5077550;28;20079;-84
2021/03/02 02:55:30;;;;;;;46.75;16.98;;;0.20;99.90;;;;;;5075068;28;20040;-84
2021/03/02 02:57:59;;;;;;;33.63;16.30;;;0.20;99.90;;;;;;5076614;28;20218;-83
2021/03/02 03:00:26;;;;;;;35.95;14.95;;;0.20;99.90;;;;;;5077522;28;20152;-84
2021/03/02 03:02:55;;;;;;;35.92;15.80;;;0.20;99.90;;;;;;5077116;28;20048;-84
2021/03/02 03:05:24;;;;;;;27.73;14.45;;;0.20;99.90;;;;;;5076317;28;20048;-84
2021/03/02 03:08:11;;;;;;;28.58;14.30;;;0.10;99.90;;;;;;5076621;28;20045;-84
2021/03/02 03:10:38;;;;;;;34.70;14.98;;;0.20;99.90;;;;;;5076535;28;20128;-84
2021/03/02 03:13:08;;;;;;;31.77;15.70;;;0.20;99.90;;;;;;5076781;28;20052;-84
2021/03/02 03:15:35;;;;;;;35.78;15.40;;;0.10;99.90;;;;;;5076801;28;20516;-84
2021/03/02 03:18:09;;;;;;;32.35;14.77;;;0.10;99.90;;;;;;5079025;28;20051;-84
2021/03/02 03:20:36;;;;;;;30.10;14.18;;;0.10;99.90;;;;;;5076536;28;20068;-84
2021/03/02 03:23:05;;;;;;;31.15;13.85;;;0.10;99.90;;;;;;5078183;28;20478;-84
2021/03/02 03:25:32;;;;;;;31.45;15.07;;;0.10;99.90;;;;;;5078504;28;20058;-83
2021/03/02 03:28:03;;;;;;;26.65;14.02;;;0.10;99.90;;;;;;5075837;28;20106;-83
2021/03/02 03:30:33;;;;;;;30.08;14.90;;;0.10;99.90;;;;;;5078432;28;20102;-83
2021/03/02 03:33:05;;;;;;;28.38;13.40;;;0.10;99.90;;;;;;5076956;28;20113;-83
2021/03/02 03:35:33;;;;;;;32.67;15.47;;;0.10;99.90;;;;;;5077641;28;20048;-83
2021/03/02 03:38:00;;;;;;;33.53;13.88;;;0.00;99.90;;;;;;5076252;28;20386;-83
2021/03/02 03:40:26;;;;;;;28.50;14.32;;;0.00;99.90;;;;;;5076814;28;20064;-83
2021/03/02 03:42:53;;;;;;;29.92;14.73;;;0.00;99.90;;;;;;5075788;28;20049;-84
2021/03/02 03:45:19;;;;;;;28.58;15.27;;;-0.10;99.90;;;;;;5075458;28;20082;-83
2021/03/02 03:47:46;;;;;;;28.65;14.40;;;-0.10;99.90;;;;;;5077689;28;20110;-83
2021/03/02 03:50:14;;;;;;;29.10;14.68;;;-0.10;99.90;;;;;;5076166;28;20068;-83
2021/03/02 03:52:45;;;;;;;36.58;16.30;;;-0.10;99.90;;;;;;5076560;28;20057;-83
2021/03/02 03:55:14;;;;;;;29.98;14.00;;;-0.20;99.90;;;;;;5075596;28;20094;-83
2021/03/02 03:57:41;;;;;;;32.17;14.60;;;-0.20;99.90;;;;;;5078339;28;20075;-84
2021/03/02 04:00:09;;;;;;;31.52;15.00;;;-0.20;99.90;;;;;;5079396;28;20052;-83
2021/03/02 04:02:36;;;;;;;39.00;15.25;;;-0.20;99.90;;;;;;5062002;28;20041;-83
2021/03/02 04:05:05;;;;;;;30.45;15.15;;;-0.20;99.90;;;;;;5078447;28;20052;-83
2021/03/02 04:07:33;;;;;;;27.95;14.77;;;-0.20;99.90;;;;;;5078592;28;20056;-83
2021/03/02 04:10:00;;;;;;;34.05;14.70;;;-0.20;99.90;;;;;;5079544;28;20059;-83
2021/03/02 04:12:45;;;;;;;28.02;14.60;;;-0.30;99.90;;;;;;5079624;28;20051;-83
2021/03/02 04:15:26;;;;;;;33.85;14.45;;;-0.30;99.90;;;;;;5078179;28;20044;-83
2021/03/02 04:17:55;;;;;;;33.00;14.68;;;-0.30;99.90;;;;;;5078647;28;20041;-83
2021/03/02 04:20:22;;;;;;;27.52;13.77;;;-0.30;99.90;;;;;;5078294;28;20079;-83
2021/03/02 04:22:48;;;;;;;28.02;13.05;;;-0.30;99.90;;;;;;5078141;28;20083;-83
2021/03/02 04:25:15;;;;;;;29.42;14.30;;;-0.30;99.90;;;;;;5078082;28;20477;-83
2021/03/02 04:27:42;;;;;;;27.23;13.27;;;-0.30;99.90;;;;;;5079461;28;20471;-83
2021/03/02 04:30:09;;;;;;;26.65;13.48;;;-0.30;99.90;;;;;;5079918;28;20490;-83
2021/03/02 04:32:35;;;;;;;25.13;12.98;;;-0.30;99.90;;;;;;5078700;28;20048;-83
2021/03/02 04:35:02;;;;;;;27.95;13.57;;;-0.30;99.90;;;;;;5080217;28;20044;-83
2021/03/02 04:37:28;;;;;;;32.17;13.63;;;-0.30;99.90;;;;;;5078590;28;20041;-81
2021/03/02 04:40:04;;;;;;;27.60;13.32;;;-0.30;99.90;;;;;;5079115;28;20048;-81
2021/03/02 04:42:30;;;;;;;25.67;12.80;;;-0.20;99.90;;;;;;5076898;28;20044;-81
2021/03/02 04:44:59;;;;;;;22.77;11.75;;;-0.20;99.90;;;;;;5075991;28;20060;-81
2021/03/02 04:47:25;;;;;;;23.52;12.27;;;-0.20;99.90;;;;;;5075853;28;20438;-81
2021/03/02 04:49:52;;;;;;;26.45;11.60;;;-0.20;99.90;;;;;;5075914;28;20052;-81
2021/03/02 04:52:18;;;;;;;19.17;10.85;;;-0.30;99.90;;;;;;5076041;28;20516;-81
2021/03/02 04:54:45;;;;;;;20.48;11.30;;;-0.30;99.90;;;;;;5076042;28;20045;-81
2021/03/02 04:57:13;;;;;;;22.75;11.70;;;-0.30;99.90;;;;;;5076039;28;20048;-81
2021/03/02 04:59:39;;;;;;;24.20;11.68;;;-0.30;99.90;;;;;;5076021;28;20060;-81
2021/03/02 05:02:06;;;;;;;21.85;11.75;;;-0.40;99.90;;;;;;5076511;28;20049;-81
2021/03/02 05:04:39;;;;;;;22.55;12.13;;;-0.40;99.90;;;;;;5075948;28;20056;-81
2021/03/02 05:07:06;;;;;;;21.10;11.00;;;-0.50;99.90;;;;;;5075970;28;20079;-81
2021/03/02 05:09:32;;;;;;;25.48;12.85;;;-0.60;99.90;;;;;;5066785;28;20044;-81
2021/03/02 05:11:59;;;;;;;24.70;12.23;;;-0.70;99.90;;;;;;5076126;28;20064;-81
2021/03/02 05:14:26;;;;;;;24.70;12.38;;;-0.80;99.90;;;;;;5076875;28;20052;-81
2021/03/02 05:16:54;;;;;;;29.95;12.65;;;-0.80;99.90;;;;;;5076334;28;20052;-81
2021/03/02 05:19:20;;;;;;;23.15;12.18;;;-0.90;99.90;;;;;;5076252;28;20045;-81
2021/03/02 05:21:56;;;;;;;31.25;12.32;;;-0.90;99.90;;;;;;5075927;28;20068;-81
2021/03/02 05:24:22;;;;;;;25.25;13.07;;;-1.00;99.90;;;;;;5076110;28;20434;-81
2021/03/02 05:26:49;;;;;;;22.60;11.40;;;-1.00;99.90;;;;;;5076079;28;20099;-81
2021/03/02 05:29:15;;;;;;;26.40;12.60;;;-1.10;99.90;;;;;;5076089;28;20072;-81
2021/03/02 05:31:41;;;;;;;23.25;12.38;;;-1.10;99.90;;;;;;5076180;28;20135;-81
2021/03/02 05:34:12;;;;;;;25.30;12.23;;;-1.10;99.90;;;;;;5076128;28;20127;-81
2021/03/02 05:36:39;;;;;;;23.88;11.98;;;-1.20;99.90;;;;;;5075894;28;20041;-81
2021/03/02 05:39:07;;;;;;;27.65;12.55;;;-1.20;99.90;;;;;;5077641;28;20087;-81
2021/03/02 05:41:34;;;;;;;24.38;12.50;;;-1.10;99.90;;;;;;5077769;28;20478;-81
2021/03/02 05:44:01;;;;;;;25.50;12.63;;;-1.10;99.90;;;;;;5078144;28;20052;-81
2021/03/02 05:46:34;;;;;;;28.45;13.57;;;-1.10;99.90;;;;;;5076608;28;20049;-81
2021/03/02 05:49:01;;;;;;;25.08;12.10;;;-1.10;99.90;;;;;;5077695;28;20093;-82
2021/03/02 05:51:33;;;;;;;26.58;12.23;;;-1.20;99.90;;;;;;5077358;28;20175;-82
2021/03/02 05:54:00;;;;;;;27.52;11.93;;;-1.20;99.90;;;;;;5078207;28;20048;-82
2021/03/02 05:56:26;;;;;;;37.45;13.38;;;-1.20;99.90;;;;;;5089221;28;20043;-80
2021/03/02 05:58:58;;;;;;;26.17;11.88;;;-1.20;99.90;;;;;;5097066;28;20041;-81
2021/03/02 06:01:25;;;;;;;24.70;11.75;;;-1.20;99.90;;;;;;5079683;28;20123;-81
2021/03/02 06:03:51;;;;;;;27.83;12.13;;;-1.30;99.90;;;;;;5077183;28;20075;-82
2021/03/02 06:06:18;;;;;;;26.42;12.80;;;-1.30;99.90;;;;;;5078220;28;20056;-83
2021/03/02 06:08:45;;;;;;;27.17;12.70;;;-1.40;99.90;;;;;;5089852;28;20048;-80
2021/03/02 06:11:37;;;;;;;32.20;13.50;;;-1.30;99.90;;;;;;5096916;28;20075;-80
2021/03/02 06:14:21;;;;;;;29.20;11.65;;;-1.30;99.90;;;;;;5089027;28;20551;-81
2021/03/02 06:16:56;;;;;;;32.88;13.90;;;-1.20;99.90;;;;;;5070898;28;20044;-81
2021/03/02 06:19:45;;;;;;;29.10;13.55;;;-1.20;99.90;;;;;;5075094;28;20106;-81
2021/03/02 06:22:36;;;;;;;30.48;12.48;;;-1.20;99.90;;;;;;5064239;28;20063;-81
2021/03/02 06:25:05;;;;;;;27.20;12.32;;;-1.20;99.90;;;;;;5074297;28;20405;-81
2021/03/02 06:27:32;;;;;;;29.88;13.27;;;-1.20;99.90;;;;;;5074865;28;20106;-81
2021/03/02 06:30:16;;;;;;;30.10;13.25;;;-1.20;99.90;;;;;;5075579;28;20044;-81
2021/03/02 06:32:45;;;;;;;22.77;11.25;;;-1.30;99.90;;;;;;5074616;28;20406;-81
2021/03/02 06:35:35;;;;;;;21.95;11.65;;;-1.30;99.90;;;;;;5074447;28;20049;-81
2021/03/02 06:38:39;;;;;;;23.95;11.63;;;-1.30;99.90;;;;;;5074340;28;20052;-81
2021/03/02 06:41:05;;;;;;;25.67;11.32;;;-1.40;99.90;;;;;;5074479;28;20402;-81
2021/03/02 06:43:38;;;;;;;25.35;11.15;;;-1.40;99.90;;;;;;5058026;28;20113;-81
2021/03/02 06:46:10;;;;;;;33.83;12.75;;;-1.50;99.90;;;;;;5074149;28;20056;-81
2021/03/02 06:48:56;;;;;;;29.55;11.90;;;-1.50;99.90;;;;;;5074436;28;20585;-81
2021/03/02 06:51:27;;;;;;;20.33;10.43;;;-1.60;99.90;;;;;;5062984;28;20057;-81
2021/03/02 06:54:16;;;;;;;27.42;11.25;;;-1.60;99.90;;;;;;5074555;28;20498;-81
2021/03/02 06:56:43;;;;;;;27.90;11.90;;;-1.70;99.90;;;;;;5074086;28;20516;-81
2021/03/02 06:59:17;;;;;;;24.98;11.30;;;-1.70;99.90;;;;;;5074163;28;20178;-81
2021/03/02 07:01:45;;;;;;;21.15;10.38;;;-1.60;99.90;;;;;;5074504;28;20112;-81
2021/03/02 07:04:14;;;;;;;20.38;10.70;;;-1.60;99.90;;;;;;5074247;28;20406;-83
2021/03/02 07:06:44;;;;;;;22.23;10.80;;;-1.60;99.90;;;;;;5076599;28;20048;-83
2021/03/02 07:09:13;;;;;;;21.65;10.85;;;-1.50;99.90;;;;;;5077907;28;20084;-83
2021/03/02 07:11:40;;;;;;;24.35;10.00;;;-1.50;99.90;;;;;;5077457;28;20083;-83
2021/03/02 07:14:08;;;;;;;23.90;12.35;;;-1.50;99.90;;;;;;5070087;28;20068;-83
2021/03/02 07:16:39;;;;;;;24.52;12.43;;;-1.50;99.90;;;;;;5059203;28;20049;-83
2021/03/02 07:19:08;;;;;;;30.00;14.63;;;-1.50;99.90;;;;;;5057471;28;20045;-83
2021/03/02 07:21:37;;;;;;;24.00;11.82;;;-1.50;99.90;;;;;;5060002;28;20052;-83
2021/03/02 07:24:05;;;;;;;26.95;13.57;;;-1.50;99.90;;;;;;5058081;28;20114;-84
2021/03/02 07:26:33;;;;;;;30.50;13.13;;;-1.70;99.90;;;;;;5058640;28;20123;-83
2021/03/02 07:29:02;;;;;;;35.17;13.95;;;-1.60;99.90;;;;;;5057751;28;20045;-84
2021/03/02 07:31:30;;;;;;;29.45;11.65;;;-1.50;99.90;;;;;;5061111;28;20076;-82
2021/03/02 07:34:00;;;;;;;27.95;12.02;;;-1.50;99.90;;;;;;5061624;28;20135;-84
2021/03/02 07:36:37;;;;;;;26.75;12.35;;;-1.50;99.90;;;;;;5060436;28;20071;-84
2021/03/02 07:39:20;;;;;;;24.42;11.32;;;-1.40;99.90;;;;;;5061213;28;20056;-83
2021/03/02 07:41:49;;;;;;;34.25;12.25;;;-1.30;99.90;;;;;;5061772;28;20084;-84
2021/03/02 07:44:18;;;;;;;25.48;12.32;;;-1.20;99.90;;;;;;5060367;28;20119;-84
2021/03/02 07:46:53;;;;;;;42.97;13.57;;;-1.00;99.90;;;;;;5060691;28;20056;-84
2021/03/02 07:49:22;;;;;;;29.13;11.00;;;-0.50;99.90;;;;;;5060980;28;20449;-84
2021/03/02 07:52:14;;;;;;;22.33;10.65;;;1.00;99.90;;;;;;5059613;28;20048;-85
2021/03/02 07:54:42;;;;;;;40.63;13.80;;;4.00;99.90;;;;;;5058613;28;20095;-85
2021/03/02 07:57:14;;;;;;;19.40;8.20;;;5.20;99.90;;;;;;5059375;28;20088;-83
2021/03/02 08:00:07;;;;;;;33.60;10.32;;;7.20;99.90;;;;;;5061694;28;20055;-83
2021/03/02 08:02:33;;;;;;;22.45;6.65;;;9.50;99.90;;;;;;5060065;28;20087;-83
2021/03/02 08:05:29;;;;;;;29.95;7.53;;;11.50;95.00;;;;;;5060155;28;20053;-83
2021/03/02 08:08:24;;;;;;;13.27;5.10;;;12.00;90.10;;;;;;5060105;28;20140;-84
2021/03/02 08:10:54;;;;;;;10.52;4.60;;;12.10;84.60;;;;;;5059727;28;20168;-83
2021/03/02 08:13:43;;;;;;;10.95;5.10;;;14.10;76.00;;;;;;5059907;28;20057;-84
2021/03/02 08:16:15;;;;;;;11.80;4.15;;;14.20;70.10;;;;;;5069666;28;20052;-84
2021/03/02 08:18:43;;;;;;;6.57;3.55;;;14.70;67.60;;;;;;5075077;28;20118;-84
2021/03/02 08:21:18;;;;;;;5.50;4.10;;;15.20;65.90;;;;;;5081714;28;20157;-84
2021/03/02 08:23:44;;;;;;;8.38;3.92;;;15.50;62.70;;;;;;5082266;28;20075;-83
2021/03/02 08:26:29;;;;;;;10.50;4.13;;;16.20;62.40;;;;;;5081703;28;20079;-83
2021/03/02 08:29:05;;;;;;;19.88;4.68;;;16.40;61.90;;;;;;5081349;28;20044;-83
2021/03/02 08:31:32;;;;;;;11.02;3.42;;;15.80;61.80;;;;;;5082211;28;20496;-84
2021/03/02 08:34:01;;;;;;;6.35;3.40;;;16.40;60.60;;;;;;5082789;28;20486;-84
2021/03/02 08:36:28;;;;;;;11.40;3.60;;;16.10;62.20;;;;;;5082120;28;20135;-84
2021/03/02 08:38:55;;;;;;;6.88;4.13;;;15.80;62.30;;;;;;5082545;28;20123;-84
2021/03/02 08:41:29;;;;;;;19.33;3.30;;;15.50;62.40;;;;;;5082240;28;20067;-84
2021/03/02 08:43:56;;;;;;;15.30;3.38;;;15.80;63.80;;;;;;5080600;28;20489;-84
2021/03/02 08:46:24;;;;;;;11.13;3.67;;;16.60;62.80;;;;;;5082462;28;20563;-84
2021/03/02 08:48:51;;;;;;;6.40;3.13;;;17.30;60.20;;;;;;5082219;28;20116;-84
2021/03/02 08:51:25;;;;;;;4.95;3.05;;;17.60;59.50;;;;;;5082992;28;20150;-84
2021/03/02 08:53:52;;;;;;;5.95;2.97;;;17.80;58.60;;;;;;5084189;28;20051;-84
2021/03/02 08:56:20;;;;;;;9.23;3.65;;;17.50;57.90;;;;;;5083054;28;20466;-84
2021/03/02 08:59:08;;;;;;;6.93;3.40;;;17.40;58.10;;;;;;5083059;28;20041;-84
2021/03/02 09:01:36;;;;;;;10.23;4.22;;;19.00;58.00;;;;;;5086250;28;20513;-84
2021/03/02 09:04:08;;;;;;;8.32;3.00;;;19.40;56.40;;;;;;5081724;28;20101;-84
2021/03/02 09:06:36;;;;;;;7.97;3.08;;;19.40;56.10;;;;;;5082622;28;20112;-84
2021/03/02 09:09:07;;;;;;;9.85;3.33;;;19.00;56.20;;;;;;5082695;28;20059;-85
2021/03/02 09:11:37;;;;;;;9.82;2.53;;;20.60;54.80;;;;;;5081613;28;20139;-85
2021/03/02 09:14:10;;;;;;;4.25;2.22;;;21.30;54.20;;;;;;5081110;28;20052;-85
2021/03/02 09:16:52;;;;;;;4.28;2.60;;;20.80;53.20;;;;;;5081514;28;20041;-85
2021/03/02 09:19:31;;;;;;;2.85;2.63;;;20.90;53.60;;;;;;5081965;28;20051;-85
2021/03/02 09:22:05;;;;;;;7.82;2.60;;;20.60;53.70;;;;;;5082613;28;20106;-85
2021/03/02 09:24:42;;;;;;;16.15;3.90;;;19.50;56.30;;;;;;5082348;28;20075;-85
2021/03/02 09:27:17;;;;;;;3.33;2.90;;;19.60;56.50;;;;;;5082536;28;20053;-85
2021/03/02 09:29:54;;;;;;;5.70;3.08;;;19.20;56.80;;;;;;5081855;28;20399;-84
2021/03/02 09:32:29;;;;;;;3.03;2.67;;;19.10;57.50;;;;;;5082588;28;20056;-85
2021/03/02 09:35:08;;;;;;;10.18;2.83;;;20.00;57.00;;;;;;5082312;28;20044;-84
2021/03/02 09:37:38;;;;;;;5.25;2.92;;;20.00;57.40;;;;;;5082014;28;20514;-85
2021/03/02 09:40:11;;;;;;;11.40;3.60;;;20.00;56.80;;;;;;5087537;28;20070;-84
2021/03/02 09:42:38;;;;;;;9.95;4.07;;;20.10;58.20;;;;;;5096611;28;20052;-84
2021/03/02 09:45:16;;;;;;;3.15;2.85;;;20.80;56.90;;;;;;5083513;28;20110;-85
2021/03/02 09:47:44;;;;;;;5.13;3.60;;;19.50;59.00;;;;;;5083715;28;20059;-84
2021/03/02 09:50:17;;;;;;;5.55;3.05;;;20.00;58.20;;;;;;5082537;28;20056;-84
2021/03/02 09:52:51;;;;;;;25.15;4.57;;;19.70;59.30;;;;;;5094036;28;20056;-84
2021/03/02 09:55:32;;;;;;;9.75;3.40;;;21.10;57.30;;;;;;5090941;28;20135;-85
2021/03/02 09:58:15;;;;;;;11.27;4.82;;;21.30;56.70;;;;;;5078958;28;20075;-84
2021/03/02 10:00:52;;;;;;;105.97;68.40;;;21.70;55.90;;;;;;5079083;28;20509;-84
2021/03/02 10:03:24;;;;;;;7.43;4.55;;;21.70;54.90;;;;;;5079666;28;20070;-84
2021/03/02 10:05:58;;;;;;;4.32;3.35;;;22.40;54.80;;;;;;5081211;28;20071;-84
2021/03/02 10:08:42;;;;;;;6.25;3.75;;;23.50;52.80;;;;;;5079397;28;20048;-85
2021/03/02 10:11:12;;;;;;;;;;;23.20;51.90;;;;;;5078432;28;20551;-84
2021/03/02 10:13:39;;;;;;;5.10;3.25;;;23.90;51.60;;;;;;5078899;28;20375;-84
2021/03/02 10:16:14;;;;;;;8.82;4.28;;;24.20;50.00;;;;;;5080483;28;20548;-84
2021/03/02 10:18:48;;;;;;;5.00;3.60;;;23.60;51.40;;;;;;5078296;28;20049;-84
2021/03/02 10:21:14;;;;;;;36.15;14.65;;;24.40;49.80;;;;;;5079232;28;20048;-84
2021/03/02 10:23:42;;;;;;;32.88;9.70;;;22.40;52.80;;;;;;5078855;28;20067;-84
2021/03/02 10:26:09;;;;;;;28.40;7.82;;;23.40;52.60;;;;;;5079772;28;20053;-84
2021/03/02 10:28:36;;;;;;;13.00;5.85;;;24.60;49.60;;;;;;5079722;28;20072;-84
2021/03/02 10:31:03;;;;;;;23.23;7.82;;;24.00;50.20;;;;;;5078525;28;20052;-84
2021/03/02 10:33:30;;;;;;;17.70;6.43;;;23.50;51.90;;;;;;5078149;28;20045;-84
2021/03/02 10:35:56;;;;;;;14.13;3.92;;;24.50;49.60;;;;;;5078522;28;20087;-84
2021/03/02 10:38:23;;;;;;;5.47;4.00;;;26.00;46.90;;;;;;5079472;28;20046;-84
2021/03/02 10:40:49;;;;;;;6.68;3.53;;;26.70;45.50;;;;;;5079760;28;20498;-84
2021/03/02 10:43:16;;;;;;;28.70;6.20;;;27.50;44.30;;;;;;5079296;28;20112;-84
2021/03/02 10:45:43;;;;;;;5.68;3.30;;;27.20;43.90;;;;;;5074891;28;20048;-84
2021/03/02 10:48:10;;;;;;;11.88;5.75;;;27.30;44.20;;;;;;5070483;28;20563;-85
2021/03/02 10:50:37;;;;;;;13.43;5.05;;;28.20;43.70;;;;;;5058510;28;20053;-84
2021/03/02 10:53:05;;;;;;;21.63;6.30;;;27.30;44.20;;;;;;5060300;28;20077;-84
2021/03/02 10:55:31;;;;;;;5.93;3.90;;;28.00;43.50;;;;;;5060880;28;20552;-84
2021/03/02 10:57:57;;;;;;;13.45;5.22;;;28.20;43.70;;;;;;5059613;28;20076;-84
2021/03/02 11:00:24;;;;;;;25.10;6.85;;;26.90;43.80;;;;;;5060379;28;20072;-85
2021/03/02 11:02:50;;;;;;;13.85;5.82;;;28.40;43.70;;;;;;5060199;28;20063;-85
2021/03/02 11:05:17;;;;;;;16.13;6.05;;;29.00;42.30;;;;;;5059461;28;20068;-84
2021/03/02 11:07:44;;;;;;;28.20;7.80;;;29.10;41.60;;;;;;5063174;28;20055;-84
2021/03/02 11:10:10;;;;;;;22.90;7.93;;;27.10;43.40;;;;;;5064811;28;20104;-84
2021/03/02 11:12:39;;;;;;;50.42;13.35;;;26.30;44.30;;;;;;5064730;28;20041;-85
2021/03/02 11:15:10;;;;;;;17.08;6.45;;;26.60;44.80;;;;;;5065941;28;20072;-84
2021/03/02 11:17:37;;;;;;;46.63;10.20;;;26.90;44.10;;;;;;5065815;28;20099;-84
2021/03/02 11:20:06;;;;;;;10.40;5.30;;;28.60;42.70;;;;;;5062903;28;20057;-85
2021/03/02 11:22:36;;;;;;;19.17;6.43;;;30.00;40.30;;;;;;5063068;28;20041;-84
2021/03/02 11:25:03;;;;;;;32.75;10.02;;;31.30;38.60;;;;;;5062003;28;20498;-84
2021/03/02 11:27:29;;;;;;;26.67;7.38;;;31.70;37.70;;;;;;5062730;28;20517;-84
2021/03/02 11:29:55;;;;;;;21.02;7.07;;;31.20;37.50;;;;;;5063554;28;20049;-84
2021/03/02 11:32:22;;;;;;;29.38;7.78;;;31.20;37.50;;;;;;5063592;28;20057;-84
2021/03/02 11:34:48;;;;;;;13.18;5.68;;;31.30;37.60;;;;;;5065102;28;20079;-84
2021/03/02 11:37:15;;;;;;;10.80;5.20;;;30.50;37.80;;;;;;5063736;28;20491;-85
2021/03/02 11:39:41;;;;;;;15.18;5.47;;;27.60;39.10;;;;;;5063619;28;20056;-85
2021/03/02 11:42:08;;;;;;;8.40;4.57;;;27.10;41.00;;;;;;5065959;28;20068;-84
2021/03/02 11:44:34;;;;;;;6.30;4.10;;;25.40;42.30;;;;;;5063327;28;20094;-85
2021/03/02 11:47:00;;;;;;;10.95;4.80;;;24.70;45.00;;;;;;5063714;28;20068;-84
2021/03/02 11:49:30;;;;;;;21.15;5.78;;;23.70;45.20;;;;;;5062454;28;20049;-84
2021/03/02 11:51:56;;;;;;;14.30;5.50;;;23.50;45.80;;;;;;5061795;28;20045;-84
2021/03/02 11:54:22;;;;;;;11.40;4.85;;;23.50;46.60;;;;;;5061154;28;20049;-84
2021/03/02 11:56:48;;;;;;;8.88;4.95;;;24.30;44.80;;;;;;5061794;28;20049;-84
2021/03/02 11:59:15;;;;;;;8.40;4.50;;;24.40;44.60;;;;;;5062122;28;20053;-85
2021/03/02 12:01:41;;;;;;;16.40;5.90;;;23.90;44.30;;;;;;5062583;28;20392;-84
2021/03/02 12:04:08;;;;;;;8.25;4.97;;;24.50;44.30;;;;;;5062802;28;20049;-84
2021/03/02 12:06:34;;;;;;;5.28;4.47;;;24.00;44.80;;;;;;5062188;28;20079;-84
2021/03/02 12:09:00;;;;;;;7.63;4.95;;;23.30;45.30;;;;;;5061989;28;20049;-84
2021/03/02 12:11:27;;;;;;;5.57;4.90;;;23.50;46.30;;;;;;5062666;28;20057;-84
2021/03/02 12:13:53;;;;;;;11.02;5.80;;;22.80;46.60;;;;;;5061716;28;20052;-83
2021/03/02 12:16:19;;;;;;;5.97;4.97;;;23.00;46.90;;;;;;5063719;28;20041;-84
2021/03/02 12:18:46;;;;;;;11.27;5.32;;;23.70;45.40;;;;;;5062451;28;20095;-84
2021/03/02 12:21:18;;;;;;;13.70;5.60;;;23.80;45.60;;;;;;5061764;28;20048;-85
2021/03/02 12:23:44;;;;;;;15.27;5.88;;;23.40;46.80;;;;;;5062320;28;20055;-84
2021/03/02 12:26:10;;;;;;;8.65;4.78;;;24.30;45.40;;;;;;5063657;28;20045;-84
2021/03/02 12:28:37;;;;;;;8.45;5.38;;;23.40;45.20;;;;;;5069159;28;20052;-84
2021/03/02 12:31:03;;;;;;;5.82;4.90;;;24.80;43.80;;;;;;5069707;28;20048;-85
2021/03/02 12:33:30;;;;;;;10.25;4.75;;;24.80;43.20;;;;;;5071556;28;20059;-84
2021/03/02 12:35:56;;;;;;;7.78;4.90;;;24.90;43.90;;;;;;5068518;28;20041;-85
2021/03/02 12:38:22;;;;;;;26.92;6.28;;;24.70;44.60;;;;;;5059506;28;20077;-85
2021/03/02 12:40:48;;;;;;;6.97;4.90;;;24.30;46.20;;;;;;5060501;28;20045;-85
2021/03/02 12:43:15;;;;;;;11.02;5.20;;;24.00;46.00;;;;;;5068965;28;20056;-86
2021/03/02 12:45:42;;;;;;;6.05;4.95;;;24.60;45.10;;;;;;5068824;28;20049;-85
2021/03/02 12:48:09;;;;;;;5.80;4.85;;;23.50;44.90;;;;;;5066233;28;20059;-85
2021/03/02 12:50:35;;;;;;;8.82;7.68;;;22.80;45.90;;;;;;5062187;28;20060;-85